createdAt,value
2022-11-24T00:01:27.924Z,100309.44
2022-11-24T00:04:05.675Z,100292.09
2022-11-24T00:06:35.774Z,100293.38
2022-11-24T00:09:03.274Z,100306.03
2022-11-24T00:11:31.991Z,100319.09
2022-11-24T00:13:59.679Z,100326.91
2022-11-24T00:16:31.836Z,100340.38
2022-11-24T00:18:59.829Z,100333.69
2022-11-24T00:21:28.702Z,100338.53
2022-11-24T00:23:55.400Z,100344.91
2022-11-24T00:26:24.407Z,100338.63
2022-11-24T00:28:54.682Z,100342.88
2022-11-24T00:31:25.379Z,100338.06
2022-11-24T00:33:52.866Z,100344.47
2022-11-24T00:36:20.951Z,100341.91
2022-11-24T00:38:47.683Z,100338.22
2022-11-24T00:41:14.434Z,100332.94
2022-11-24T00:43:40.993Z,100328.13
2022-11-24T00:46:07.505Z,100342.47
2022-11-24T00:48:33.943Z,100341.75
2022-11-24T00:51:05.847Z,100339.75
2022-11-24T00:53:32.576Z,100343.44
2022-11-24T00:55:58.968Z,100337.75
2022-11-24T00:58:25.930Z,100354.50
2022-11-24T01:00:52.988Z,100359.16
2022-11-24T01:03:20.836Z,100369.66
2022-11-24T01:05:47.756Z,100377.75
2022-11-24T01:08:14.233Z,100364.97
2022-11-24T01:10:40.644Z,100370.94
2022-11-24T01:13:07.018Z,100361.13
2022-11-24T01:15:35.748Z,100359.84
2022-11-24T01:18:02.761Z,100360.56
2022-11-24T01:20:29.114Z,100369.94
2022-11-24T01:22:55.491Z,100376.00
2022-11-24T01:25:21.842Z,100368.47
2022-11-24T01:27:48.180Z,100377.53
2022-11-24T01:30:14.500Z,100369.59
2022-11-24T01:32:40.851Z,100376.13
2022-11-24T01:35:07.760Z,100358.25
2022-11-24T01:37:34.193Z,100359.81
2022-11-24T01:40:04.025Z,100374.41
2022-11-24T01:42:50.256Z,100379.78
2022-11-24T01:45:36.500Z,100384.22
2022-11-24T01:48:07.445Z,100382.53
2022-11-24T01:50:38.134Z,100389.91
2022-11-24T01:53:04.949Z,100384.56
2022-11-24T01:55:36.626Z,100395.47
2022-11-24T01:58:26.626Z,100394.06
2022-11-24T02:00:53.632Z,100393.91
2022-11-24T02:03:24.582Z,100401.03
2022-11-24T02:05:55.913Z,100401.59
2022-11-24T02:09:00.289Z,100407.84
2022-11-24T02:11:33.099Z,100393.16
2022-11-24T02:13:59.967Z,100407.78
2022-11-24T02:16:26.854Z,100401.22
2022-11-24T02:18:53.736Z,100415.84
2022-11-24T02:21:20.069Z,100417.16
2022-11-24T02:24:00.949Z,100403.66
2022-11-24T02:26:45.759Z,100415.59
2022-11-24T02:29:13.923Z,100417.56
2022-11-24T02:31:45.385Z,100408.91
2022-11-24T02:34:11.733Z,100424.66
2022-11-24T02:36:38.061Z,100418.97
2022-11-24T02:39:12.650Z,100416.44
2022-11-24T02:41:44.300Z,100418.25
2022-11-24T02:44:14.218Z,100414.84
2022-11-24T02:46:40.692Z,100430.19
2022-11-24T02:49:07.109Z,100433.88
2022-11-24T02:51:35.811Z,100417.72
2022-11-24T02:54:02.164Z,100413.59
2022-11-24T02:56:28.757Z,100433.59
2022-11-24T02:58:55.071Z,100434.47
2022-11-24T03:01:21.570Z,100428.22
2022-11-24T03:03:48.502Z,100422.69
2022-11-24T03:06:15.144Z,100417.97
2022-11-24T03:08:41.654Z,100425.09
2022-11-24T03:11:08.161Z,100420.56
2022-11-24T03:13:34.672Z,100425.66
2022-11-24T03:16:01.053Z,100428.06
2022-11-24T03:18:27.607Z,100424.38
2022-11-24T03:20:59.355Z,100420.69
2022-11-24T03:23:26.178Z,100436.47
2022-11-24T03:25:52.704Z,100425.38
2022-11-24T03:28:19.073Z,100423.53
2022-11-24T03:30:50.978Z,100436.00
2022-11-24T03:33:17.567Z,100434.91
2022-11-24T03:35:43.904Z,100417.84
2022-11-24T03:38:10.272Z,100438.69
2022-11-24T03:40:36.846Z,100432.88
2022-11-24T03:43:03.185Z,100438.03
2022-11-24T03:45:45.618Z,100431.88
2022-11-24T03:48:12.975Z,100452.19
2022-11-24T03:50:39.583Z,100440.41
2022-11-24T03:53:05.935Z,100435.44
2022-11-24T03:55:33.471Z,100457.00
2022-11-24T03:57:59.942Z,100451.66
2022-11-24T04:00:26.465Z,100449.06
2022-11-24T04:02:52.847Z,100470.25
2022-11-24T04:05:19.336Z,100461.44
2022-11-24T04:07:45.725Z,100471.78
2022-11-24T04:10:12.247Z,100469.09
2022-11-24T04:12:38.792Z,100470.94
2022-11-24T04:15:05.776Z,100474.78
2022-11-24T04:17:32.121Z,100476.75
2022-11-24T04:19:58.584Z,100482.44
2022-11-24T04:22:25.069Z,100484.41
2022-11-24T04:24:51.391Z,100488.25
2022-11-24T04:27:17.735Z,100484.13
2022-11-24T04:29:44.118Z,100492.22
2022-11-24T04:32:10.455Z,100505.13
2022-11-24T04:34:37.776Z,100489.81
2022-11-24T04:37:04.170Z,100511.22
2022-11-24T04:39:30.562Z,100520.31
2022-11-24T04:42:00.148Z,100505.13
2022-11-24T04:44:26.716Z,100493.75
2022-11-24T04:46:53.116Z,100509.22
2022-11-24T04:49:19.784Z,100517.31
2022-11-24T04:51:46.294Z,100527.25
2022-11-24T04:54:13.617Z,100511.41
2022-11-24T04:56:41.441Z,100543.09
2022-11-24T04:59:08.586Z,100536.00
2022-11-24T05:01:35.626Z,100547.13
2022-11-24T05:04:02.056Z,100554.47
2022-11-24T05:06:28.389Z,100539.72
2022-11-24T05:08:55.218Z,100555.47
2022-11-24T05:11:21.558Z,100560.44
2022-11-24T05:13:47.895Z,100569.50
2022-11-24T05:16:14.393Z,100560.13
2022-11-24T05:18:41.434Z,100569.00
2022-11-24T05:21:10.451Z,100579.44
2022-11-24T05:23:36.850Z,100576.53
2022-11-24T05:26:04.302Z,100573.25
2022-11-24T05:28:31.036Z,100580.34
2022-11-24T05:31:04.932Z,100592.13
2022-11-24T05:33:32.032Z,100580.53
2022-11-24T05:36:04.537Z,100599.91
2022-11-24T05:41:12.145Z,100614.78
2022-11-24T05:43:40.002Z,100602.94
2022-11-24T05:46:06.336Z,100616.53
2022-11-24T05:48:34.967Z,100628.09
2022-11-24T05:51:05.146Z,100622.88
2022-11-24T05:53:34.272Z,100623.81
2022-11-24T05:56:04.374Z,100642.88
2022-11-24T05:58:30.743Z,100629.47
2022-11-24T06:00:57.533Z,100652.47
2022-11-24T06:03:23.852Z,100646.94
2022-11-24T06:05:50.200Z,100652.38
2022-11-24T06:08:16.619Z,100666.66
2022-11-24T06:10:43.024Z,100667.78
2022-11-24T06:13:12.341Z,100653.84
2022-11-24T06:15:38.932Z,100681.91
2022-11-24T06:18:05.507Z,100681.50
2022-11-24T06:20:33.074Z,100690.50
2022-11-24T06:23:00.619Z,100695.91
2022-11-24T06:25:31.078Z,100680.19
2022-11-24T06:27:58.465Z,100700.97
2022-11-24T06:30:24.818Z,100705.28
2022-11-24T06:32:55.595Z,100708.13
2022-11-24T06:35:23.243Z,100707.19
2022-11-24T06:37:49.664Z,100724.28
2022-11-24T06:40:16.463Z,100734.44
2022-11-24T06:42:42.842Z,100741.53
2022-11-24T06:45:09.884Z,100756.81
2022-11-24T06:47:36.807Z,100759.91
2022-11-24T06:50:03.808Z,100759.75
2022-11-24T06:52:30.192Z,100764.44
2022-11-24T06:54:56.614Z,100763.97
2022-11-24T06:57:23.138Z,100772.03
2022-11-24T06:59:49.530Z,100779.41
2022-11-24T07:02:15.897Z,100764.09
2022-11-24T07:04:42.363Z,100766.91
2022-11-24T07:07:10.129Z,100787.63
2022-11-24T07:09:36.729Z,100785.31
2022-11-24T07:12:04.595Z,100797.66
2022-11-24T07:14:31.083Z,100802.78
2022-11-24T07:16:58.018Z,100807.44
2022-11-24T07:19:25.307Z,100823.09
2022-11-24T07:21:52.115Z,100807.81
2022-11-24T07:24:18.913Z,100812.72
2022-11-24T07:26:45.306Z,100832.13
2022-11-24T07:29:11.615Z,100825.41
2022-11-24T07:31:38.060Z,100828.97
2022-11-24T07:34:06.048Z,100828.50
2022-11-24T07:36:32.490Z,100840.00
2022-11-24T07:38:59.192Z,100833.41
2022-11-24T07:41:25.712Z,100843.78
2022-11-24T07:43:52.393Z,100850.25
2022-11-24T07:46:19.855Z,100863.47
2022-11-24T07:48:46.461Z,100864.06
2022-11-24T07:51:12.852Z,100874.34
2022-11-24T07:53:39.630Z,100874.50
2022-11-24T07:56:06.770Z,100873.28
2022-11-24T07:58:35.913Z,100883.91
2022-11-24T08:01:17.446Z,100889.78
2022-11-24T08:03:45.047Z,100895.69
2022-11-24T08:06:35.444Z,100895.78
2022-11-24T08:08:59.634Z,100900.56
2022-11-24T08:11:26.329Z,100903.50
2022-11-24T08:13:53.005Z,100905.06
2022-11-24T08:16:20.268Z,100908.88
2022-11-24T08:18:53.511Z,100908.63
2022-11-24T08:21:20.192Z,100920.50
2022-11-24T08:23:46.848Z,100924.88
2022-11-24T08:26:16.481Z,100909.97
2022-11-24T08:28:43.816Z,100929.19
2022-11-24T08:31:13.492Z,100927.59
2022-11-24T08:33:40.238Z,100934.72
2022-11-24T08:36:11.724Z,100931.16
2022-11-24T08:38:38.588Z,100940.19
2022-11-24T08:41:10.160Z,100940.31
2022-11-24T08:43:37.297Z,100951.97
2022-11-24T08:46:06.444Z,100938.13
2022-11-24T08:48:33.337Z,100955.53
2022-11-24T08:51:05.829Z,100947.91
2022-11-24T08:53:32.155Z,100958.09
2022-11-24T08:56:02.306Z,100962.59
2022-11-24T08:58:30.030Z,100958.78
2022-11-24T09:00:56.484Z,100952.22
2022-11-24T09:03:22.964Z,100964.25
2022-11-24T09:05:52.265Z,100976.03
2022-11-24T09:08:19.174Z,100975.44
2022-11-24T09:10:45.555Z,100971.88
2022-11-24T09:13:12.494Z,100985.00
2022-11-24T09:15:38.891Z,100991.66
2022-11-24T09:18:05.356Z,100978.78
2022-11-24T09:20:31.763Z,100981.22
2022-11-24T09:22:58.118Z,100991.75
2022-11-24T09:25:24.515Z,100985.47
2022-11-24T09:27:51.407Z,100989.44
2022-11-24T09:30:17.798Z,100981.28
2022-11-24T09:32:44.269Z,100995.00
2022-11-24T09:35:12.676Z,101001.94
2022-11-24T09:37:39.057Z,100999.69
2022-11-24T09:40:06.106Z,100998.25
2022-11-24T09:42:48.071Z,101002.97
2022-11-24T09:46:04.473Z,101010.41
2022-11-24T09:48:46.166Z,101016.00
2022-11-24T09:51:14.809Z,101027.56
2022-11-24T09:53:54.925Z,101022.09
2022-11-24T09:56:24.622Z,101024.25
2022-11-24T09:59:00.405Z,101039.91
2022-11-24T10:01:32.711Z,101032.06
2022-11-24T10:04:06.023Z,101030.00
2022-11-24T10:06:32.915Z,101043.22
2022-11-24T10:09:20.574Z,101035.69
2022-11-24T10:11:59.970Z,101044.56
2022-11-24T10:14:36.180Z,101045.59
2022-11-24T10:17:26.547Z,101051.56
2022-11-24T10:20:18.746Z,101060.47
2022-11-24T10:23:09.728Z,101070.69
2022-11-24T10:25:56.957Z,101074.81
2022-11-24T10:28:29.422Z,101068.97
2022-11-24T10:31:13.076Z,101069.47
2022-11-24T10:33:40.121Z,101071.41
2022-11-24T10:36:12.235Z,101072.38
2022-11-24T10:38:46.700Z,101074.47
2022-11-24T10:41:42.602Z,101078.34
2022-11-24T10:44:15.321Z,101079.38
2022-11-24T10:46:42.223Z,101081.56
2022-11-24T10:49:16.950Z,101080.66
2022-11-24T10:52:05.197Z,101082.25
2022-11-24T10:54:31.990Z,101095.22
2022-11-24T10:56:58.490Z,101091.22
2022-11-24T10:59:24.760Z,101101.97
2022-11-24T11:01:52.822Z,101109.44
2022-11-24T11:04:28.851Z,101109.75
2022-11-24T11:07:22.014Z,101106.00
2022-11-24T11:09:49.139Z,101106.53
2022-11-24T11:15:30.691Z,101105.72
2022-11-24T11:18:01.753Z,101095.88
2022-11-24T11:20:31.205Z,101105.84
2022-11-24T11:23:00.236Z,101088.78
2022-11-24T11:25:30.358Z,101097.91
2022-11-24T11:28:18.444Z,101093.69
2022-11-24T11:31:21.292Z,101099.16
2022-11-24T11:34:04.605Z,101102.56
2022-11-24T11:36:32.893Z,101104.41
2022-11-24T11:38:59.382Z,101092.34
2022-11-24T11:41:32.133Z,101097.47
2022-11-24T11:44:11.868Z,101096.75
2022-11-24T11:46:38.291Z,101092.81
2022-11-24T11:49:04.951Z,101088.06
2022-11-24T11:51:57.177Z,101099.56
2022-11-24T11:54:29.503Z,101093.53
2022-11-24T11:57:24.133Z,101087.06
2022-11-24T12:00:03.397Z,101093.34
2022-11-24T12:02:54.378Z,101099.16
2022-11-24T12:05:34.671Z,101095.88
2022-11-24T12:08:25.421Z,101105.00
2022-11-24T12:11:11.660Z,101099.31
2022-11-24T12:13:59.887Z,101093.91
2022-11-24T12:16:32.281Z,101097.34
2022-11-24T12:19:15.735Z,101096.94
2022-11-24T12:21:55.361Z,101097.09
2022-11-24T12:24:34.573Z,101107.72
2022-11-24T12:27:23.378Z,101099.84
2022-11-24T12:29:55.961Z,101103.72
2022-11-24T12:32:38.466Z,101094.72
2022-11-24T12:35:43.459Z,101099.69
2022-11-24T12:38:32.534Z,101110.56
2022-11-24T12:44:26.121Z,101117.09
2022-11-24T12:47:08.996Z,101116.47
2022-11-24T12:50:10.967Z,101133.75
2022-11-24T12:52:55.572Z,101136.03
2022-11-24T12:55:25.601Z,101116.72
2022-11-24T12:58:09.329Z,101126.75
2022-11-24T13:01:16.469Z,101129.66
2022-11-24T13:04:07.690Z,101122.19
2022-11-24T13:07:02.999Z,101123.19
2022-11-24T13:09:29.385Z,101114.03
2022-11-24T13:12:25.251Z,101122.41
2022-11-24T13:14:51.694Z,101117.28
2022-11-24T13:17:43.501Z,101128.69
2022-11-24T13:20:26.541Z,101117.09
2022-11-24T13:22:59.897Z,101115.78
2022-11-24T13:25:29.084Z,101123.84
2022-11-24T13:27:57.385Z,101112.53
2022-11-24T13:30:33.019Z,101121.28
2022-11-24T13:33:16.928Z,101115.88
2022-11-24T13:36:25.238Z,101116.78
2022-11-24T13:38:53.903Z,101116.03
2022-11-24T13:41:35.283Z,101114.41
2022-11-24T13:44:13.890Z,101126.19
2022-11-24T13:47:05.107Z,101125.19
2022-11-24T13:49:43.536Z,101114.50
2022-11-24T13:52:37.884Z,101118.22
2022-11-24T13:55:20.353Z,101122.84
2022-11-24T13:57:50.390Z,101119.53
2022-11-24T14:01:18.614Z,101120.41
2022-11-24T14:04:07.259Z,101115.44
2022-11-24T14:06:45.029Z,101117.66
2022-11-24T14:09:23.781Z,101113.13
2022-11-24T14:12:16.723Z,101118.81
2022-11-24T14:14:45.211Z,101110.31
2022-11-24T14:17:27.754Z,101115.66
2022-11-24T14:19:55.966Z,101110.50
2022-11-24T14:22:36.337Z,101110.41
2022-11-24T14:25:03.565Z,101100.56
2022-11-24T14:27:32.236Z,101105.66
2022-11-24T14:30:12.159Z,101101.50
2022-11-24T14:32:39.047Z,101101.03
2022-11-24T14:35:27.050Z,101094.53
2022-11-24T14:37:53.517Z,101097.06
2022-11-24T14:40:43.434Z,101101.19
2022-11-24T14:43:20.795Z,101107.78
2022-11-24T14:46:02.519Z,101104.16
2022-11-24T14:48:36.264Z,101110.75
2022-11-24T14:51:18.039Z,101109.84
2022-11-24T14:53:46.883Z,101113.13
2022-11-24T14:56:18.972Z,101111.09
2022-11-24T14:58:45.400Z,101098.09
2022-11-24T15:01:27.116Z,101109.91
2022-11-24T15:04:38.854Z,101101.63
2022-11-24T15:07:25.647Z,101109.16
2022-11-24T15:09:55.067Z,101109.44
2022-11-24T15:12:48.022Z,101119.22
2022-11-24T15:15:14.382Z,101119.38
2022-11-24T15:17:56.403Z,101123.72
2022-11-24T15:20:33.839Z,101118.44
2022-11-24T15:23:21.435Z,101115.06
2022-11-24T15:25:48.795Z,101116.72
2022-11-24T15:28:15.131Z,101133.34
2022-11-24T15:30:41.787Z,101121.34
2022-11-24T15:33:19.036Z,101135.75
2022-11-24T15:35:46.024Z,101136.06
2022-11-24T15:38:12.968Z,101121.91
2022-11-24T15:40:40.386Z,101119.38
2022-11-24T15:43:36.254Z,101141.56
2022-11-24T15:46:03.971Z,101132.69
2022-11-24T15:48:30.641Z,101135.59
2022-11-24T15:50:58.348Z,101130.75
2022-11-24T15:53:30.397Z,101130.75
2022-11-24T15:55:57.515Z,101111.94
2022-11-24T15:58:24.348Z,101130.94
2022-11-24T16:00:50.840Z,101125.91
2022-11-24T16:03:45.833Z,101123.94
2022-11-24T16:06:03.909Z,101122.38
2022-11-24T16:08:30.247Z,101130.00
2022-11-24T16:10:56.631Z,101130.97
2022-11-24T16:13:23.194Z,101122.19
2022-11-24T16:15:49.930Z,101125.97
2022-11-24T16:18:17.820Z,101118.88
2022-11-24T16:20:44.228Z,101110.75
2022-11-24T16:23:10.598Z,101120.09
2022-11-24T16:25:37.024Z,101130.34
2022-11-24T16:28:19.428Z,101131.50
2022-11-24T16:30:50.369Z,101127.91
2022-11-24T16:33:17.140Z,101130.88
2022-11-24T16:35:46.830Z,101127.22
2022-11-24T16:38:17.517Z,101119.88
2022-11-24T16:40:44.160Z,101135.06
2022-11-24T16:43:10.519Z,101138.75
2022-11-24T16:45:40.842Z,101142.75
2022-11-24T16:48:10.178Z,101135.44
2022-11-24T16:50:37.839Z,101135.94
2022-11-24T16:53:04.153Z,101115.59
2022-11-24T16:55:31.244Z,101134.97
2022-11-24T16:57:57.619Z,101126.25
2022-11-24T17:00:24.076Z,101116.09
2022-11-24T17:02:50.532Z,101127.88
2022-11-24T17:05:17.069Z,101134.22
2022-11-24T17:07:43.727Z,101132.66
2022-11-24T17:10:10.505Z,101132.03
2022-11-24T17:12:36.841Z,101117.94
2022-11-24T17:15:30.989Z,101125.28
2022-11-24T17:18:22.415Z,101130.78
2022-11-24T17:20:37.060Z,101127.34
2022-11-24T17:23:03.481Z,101136.66
2022-11-24T17:25:32.285Z,101132.13
2022-11-24T17:27:58.777Z,101121.34
2022-11-24T17:30:25.160Z,101127.34
2022-11-24T17:32:56.533Z,101128.31
2022-11-24T17:35:23.303Z,101133.34
2022-11-24T17:37:49.921Z,101134.19
2022-11-24T17:40:31.879Z,101128.69
2022-11-24T17:42:59.591Z,101123.56
2022-11-24T17:45:27.994Z,101119.75
2022-11-24T17:47:55.106Z,101123.44
2022-11-24T17:50:25.739Z,101129.94
2022-11-24T17:52:53.983Z,101137.06
2022-11-24T17:55:20.677Z,101135.19
2022-11-24T17:57:46.988Z,101139.63
2022-11-24T18:00:13.969Z,101135.81
2022-11-24T18:21:33.095Z,101142.94
2022-11-24T18:23:59.505Z,101147.94
2022-11-24T18:26:25.803Z,101138.75
2022-11-24T18:28:52.308Z,101139.50
2022-11-24T18:31:18.724Z,101130.06
2022-11-24T18:33:45.121Z,101129.78
2022-11-24T18:36:21.928Z,101127.34
2022-11-24T18:38:49.891Z,101121.47
2022-11-24T18:41:16.671Z,101120.50
2022-11-24T18:43:43.486Z,101132.41
2022-11-24T18:54:13.377Z,101124.69
2022-11-24T18:56:40.128Z,101119.03
2022-11-24T18:59:06.554Z,101117.81
2022-11-24T19:01:33.109Z,101125.41
2022-11-24T19:04:01.700Z,101127.38
2022-11-24T19:06:33.358Z,101124.81
2022-11-24T19:09:02.900Z,101111.94
2022-11-24T19:11:34.873Z,101106.66
2022-11-24T19:14:03.750Z,101121.13
2022-11-24T19:16:30.138Z,101104.09
2022-11-24T19:18:57.919Z,101094.06
2022-11-24T19:21:29.947Z,101109.13
2022-11-24T19:24:02.886Z,101097.22
2022-11-24T19:26:31.626Z,101088.06
2022-11-24T19:28:57.942Z,101089.00
2022-11-24T19:31:24.270Z,101097.97
2022-11-24T19:33:50.678Z,101071.84
2022-11-24T19:36:19.257Z,101095.03
2022-11-24T19:38:50.977Z,101083.63
2022-11-24T19:41:18.974Z,101087.78
2022-11-24T19:43:45.403Z,101095.22
2022-11-24T19:46:14.938Z,101099.78
2022-11-24T19:48:43.319Z,101103.31
2022-11-24T19:51:16.121Z,101098.44
2022-11-24T19:53:43.722Z,101106.66
2022-11-24T19:56:23.402Z,101105.16
2022-11-24T19:58:51.288Z,101106.66
2022-11-24T20:01:27.666Z,101098.31
2022-11-24T20:03:57.112Z,101109.81
2022-11-24T20:06:23.448Z,101117.78
2022-11-24T20:08:49.859Z,101116.81
2022-11-24T20:11:19.261Z,101117.28
2022-11-24T20:13:46.953Z,101111.44
2022-11-24T20:16:16.166Z,101114.59
2022-11-24T20:18:44.799Z,101108.22
2022-11-24T20:21:17.707Z,101106.41
2022-11-24T20:23:46.142Z,101108.09
2022-11-24T20:26:16.214Z,101106.25
2022-11-24T20:28:42.859Z,101105.78
2022-11-24T20:31:14.761Z,101097.22
2022-11-24T20:33:42.304Z,101101.63
2022-11-24T20:36:14.298Z,101098.78
2022-11-24T20:38:42.341Z,101094.03
2022-11-24T20:41:45.005Z,101097.34
2022-11-24T20:44:14.591Z,101089.50
2022-11-24T20:46:42.933Z,101102.22
2022-11-24T20:49:12.669Z,101105.53
2022-11-24T20:51:40.776Z,101097.44
2022-11-24T20:54:08.885Z,101090.47
2022-11-24T20:56:37.678Z,101093.19
2022-11-24T20:59:05.458Z,101089.22
2022-11-24T21:01:41.051Z,101104.72
2022-11-24T21:04:13.611Z,101092.22
2022-11-24T21:06:40.016Z,101090.63
2022-11-24T21:09:08.310Z,101086.66
2022-11-24T21:11:35.422Z,101085.09
2022-11-24T21:14:01.811Z,101090.88
2022-11-24T21:16:31.043Z,101087.44
2022-11-24T21:19:00.040Z,101087.19
2022-11-24T21:21:31.860Z,101079.34
2022-11-24T21:23:58.268Z,101075.31
2022-11-24T21:26:24.557Z,101081.44
2022-11-24T21:28:50.892Z,101083.00
2022-11-24T21:31:20.335Z,101085.22
2022-11-24T21:33:52.525Z,101081.44
2022-11-24T21:36:22.554Z,101082.78
2022-11-24T21:38:59.001Z,101073.34
2022-11-24T21:41:27.841Z,101072.47
2022-11-24T21:43:55.588Z,101076.50
2022-11-24T21:46:22.412Z,101076.31
2022-11-24T21:48:48.973Z,101076.38
2022-11-24T21:51:17.340Z,101065.09
2022-11-24T21:53:44.935Z,101078.44
2022-11-24T21:56:14.137Z,101065.56
2022-11-24T21:58:58.311Z,101058.88
2022-11-24T22:01:27.073Z,101054.91
2022-11-24T22:03:54.415Z,101053.47
2022-11-24T22:06:21.555Z,101052.97
2022-11-24T22:08:48.727Z,101053.97
2022-11-24T22:11:16.146Z,101040.84
2022-11-24T22:13:43.359Z,101045.13
2022-11-24T22:16:12.507Z,101061.69
2022-11-24T22:18:41.171Z,101051.91
2022-11-24T22:21:10.150Z,101051.03
2022-11-24T22:23:36.763Z,101046.38
2022-11-24T22:26:14.084Z,101048.34
2022-11-24T22:28:41.227Z,101053.59
2022-11-24T22:31:11.090Z,101049.91
2022-11-24T22:33:37.512Z,101050.78
2022-11-24T22:36:04.317Z,101046.25
2022-11-24T22:38:31.801Z,101047.13
2022-11-24T22:41:05.785Z,101048.69
2022-11-24T22:43:34.233Z,101044.91
2022-11-24T22:46:08.952Z,101043.44
2022-11-24T22:48:35.476Z,101049.31
2022-11-24T22:51:02.859Z,101046.00
2022-11-24T22:53:29.424Z,101045.78
2022-11-24T22:55:55.764Z,101043.56
2022-11-24T22:58:22.212Z,101058.53
2022-11-24T23:00:48.687Z,101048.81
2022-11-24T23:03:15.150Z,101048.09
2022-11-24T23:05:41.587Z,101051.03
2022-11-24T23:08:08.103Z,101058.13
2022-11-24T23:10:34.595Z,101056.31
2022-11-24T23:13:00.987Z,101048.22
2022-11-24T23:15:27.304Z,101047.47
2022-11-24T23:17:53.577Z,101048.47
2022-11-24T23:20:19.949Z,101038.75
2022-11-24T23:22:46.312Z,101041.84
2022-11-24T23:25:12.706Z,101034.59
2022-11-24T23:27:39.176Z,101027.97
2022-11-24T23:30:06.419Z,101037.44
2022-11-24T23:32:32.840Z,101026.13
2022-11-24T23:34:59.231Z,101037.44
2022-11-24T23:37:39.378Z,101035.94
2022-11-24T23:40:12.348Z,101032.63
2022-11-24T23:42:38.707Z,101030.91
2022-11-24T23:45:05.627Z,101036.44
2022-11-24T23:47:32.010Z,101038.91
2022-11-24T23:49:58.661Z,101018.19
2022-11-24T23:52:25.095Z,101022.59
2022-11-24T23:54:51.457Z,101032.16
2022-11-24T23:57:17.745Z,101028.97
2022-11-24T23:59:44.101Z,101023.97
